Terminal Aerodrome Forecast
Issued by NWS Sioux Falls, SD

Home | Current Version | Previous Version | Text Only | Print | Product List | Glossary On
Versions: 1 2 3 4 5 6 7 8 9 10 11 12 13 14 15 16 17 18 19 20 21 22 23 24 25
755
FTUS43 KFSD 212329
TAFSUX
TAF
KSUX 212329Z 2200/2224 33010KT P6SM SKC
     FM220600 VRB04KT P6SM SKC
     FM221500 18010KT P6SM SCT200
     FM221700 18013G20KT P6SM SKC
     FM222300 17009KT P6SM SKC=

USA.gov is the U.S. government's official web portal to all federal, state and local government web resources and services.